sensor_id;sensor_type;location;lat;lon;timestamp;P1;durP1;ratioP1;P2;durP2;ratioP2
3901;SDS011;1966;49.908;9.156;2023-05-24T00:02:55;7.10;;;5.20;;
3901;SDS011;1966;49.908;9.156;2023-05-24T00:07:57;7.80;;;4.90;;
3901;SDS011;1966;49.908;9.156;2023-05-24T00:12:57;6.67;;;5.03;;
3901;SDS011;1966;49.908;9.156;2023-05-24T00:17:56;8.77;;;5.13;;
3901;SDS011;1966;49.908;9.156;2023-05-24T00:22:56;6.73;;;5.13;;
3901;SDS011;1966;49.908;9.156;2023-05-24T00:27:56;11.77;;;5.67;;
3901;SDS011;1966;49.908;9.156;2023-05-24T00:32:55;9.63;;;5.10;;
3901;SDS011;1966;49.908;9.156;2023-05-24T00:37:54;5.93;;;5.23;;
3901;SDS011;1966;49.908;9.156;2023-05-24T00:42:55;7.70;;;5.60;;
3901;SDS011;1966;49.908;9.156;2023-05-24T00:47:54;8.70;;;5.57;;
3901;SDS011;1966;49.908;9.156;2023-05-24T00:52:54;9.07;;;5.10;;
3901;SDS011;1966;49.908;9.156;2023-05-24T00:57:55;9.97;;;5.97;;
3901;SDS011;1966;49.908;9.156;2023-05-24T01:02:54;9.40;;;5.37;;
3901;SDS011;1966;49.908;9.156;2023-05-24T01:07:57;11.30;;;5.70;;
3901;SDS011;1966;49.908;9.156;2023-05-24T01:13:00;7.63;;;5.60;;
3901;SDS011;1966;49.908;9.156;2023-05-24T01:18:04;9.67;;;5.83;;
3901;SDS011;1966;49.908;9.156;2023-05-24T01:23:16;13.73;;;5.37;;
3901;SDS011;1966;49.908;9.156;2023-05-24T01:28:18;10.43;;;5.53;;
3901;SDS011;1966;49.908;9.156;2023-05-24T01:33:17;6.40;;;5.27;;
3901;SDS011;1966;49.908;9.156;2023-05-24T01:38:17;12.97;;;5.90;;
3901;SDS011;1966;49.908;9.156;2023-05-24T01:43:20;11.53;;;5.70;;
3901;SDS011;1966;49.908;9.156;2023-05-24T01:48:23;5.83;;;5.10;;
3901;SDS011;1966;49.908;9.156;2023-05-24T01:53:40;8.20;;;5.60;;
3901;SDS011;1966;49.908;9.156;2023-05-24T01:58:42;6.60;;;5.00;;
3901;SDS011;1966;49.908;9.156;2023-05-24T02:03:42;11.13;;;6.13;;
3901;SDS011;1966;49.908;9.156;2023-05-24T02:08:41;6.57;;;5.27;;
3901;SDS011;1966;49.908;9.156;2023-05-24T02:13:42;7.77;;;5.10;;
3901;SDS011;1966;49.908;9.156;2023-05-24T02:18:41;8.53;;;5.03;;
3901;SDS011;1966;49.908;9.156;2023-05-24T02:23:41;6.30;;;4.87;;
3901;SDS011;1966;49.908;9.156;2023-05-24T02:28:40;8.27;;;5.40;;
3901;SDS011;1966;49.908;9.156;2023-05-24T02:33:41;10.00;;;5.57;;
3901;SDS011;1966;49.908;9.156;2023-05-24T02:38:40;9.27;;;5.50;;
3901;SDS011;1966;49.908;9.156;2023-05-24T02:43:40;9.07;;;5.87;;
3901;SDS011;1966;49.908;9.156;2023-05-24T02:48:41;9.67;;;5.63;;
3901;SDS011;1966;49.908;9.156;2023-05-24T02:53:40;6.53;;;5.60;;
3901;SDS011;1966;49.908;9.156;2023-05-24T02:58:40;6.50;;;4.93;;
3901;SDS011;1966;49.908;9.156;2023-05-24T03:03:39;8.23;;;4.97;;
3901;SDS011;1966;49.908;9.156;2023-05-24T03:08:40;7.60;;;5.53;;
3901;SDS011;1966;49.908;9.156;2023-05-24T03:13:39;7.93;;;5.43;;
3901;SDS011;1966;49.908;9.156;2023-05-24T03:18:39;8.20;;;5.40;;
3901;SDS011;1966;49.908;9.156;2023-05-24T03:23:38;6.97;;;5.03;;
3901;SDS011;1966;49.908;9.156;2023-05-24T03:28:39;7.50;;;5.50;;
3901;SDS011;1966;49.908;9.156;2023-05-24T03:33:38;7.40;;;5.17;;
3901;SDS011;1966;49.908;9.156;2023-05-24T03:38:38;7.63;;;4.60;;
3901;SDS011;1966;49.908;9.156;2023-05-24T03:43:38;8.73;;;5.17;;
3901;SDS011;1966;49.908;9.156;2023-05-24T03:48:38;6.80;;;5.30;;
3901;SDS011;1966;49.908;9.156;2023-05-24T03:53:37;7.50;;;5.33;;
3901;SDS011;1966;49.908;9.156;2023-05-24T03:58:36;7.50;;;5.77;;
3901;SDS011;1966;49.908;9.156;2023-05-24T04:03:37;7.77;;;5.17;;
3901;SDS011;1966;49.908;9.156;2023-05-24T04:08:37;6.20;;;4.70;;
3901;SDS011;1966;49.908;9.156;2023-05-24T04:13:36;6.13;;;4.87;;
3901;SDS011;1966;49.908;9.156;2023-05-24T04:18:37;9.43;;;5.77;;
3901;SDS011;1966;49.908;9.156;2023-05-24T04:23:36;8.73;;;6.03;;
3901;SDS011;1966;49.908;9.156;2023-05-24T04:28:35;13.67;;;5.50;;
3901;SDS011;1966;49.908;9.156;2023-05-24T04:33:35;19.53;;;4.77;;
3901;SDS011;1966;49.908;9.156;2023-05-24T04:38:37;11.93;;;5.30;;
3901;SDS011;1966;49.908;9.156;2023-05-24T04:43:37;13.13;;;5.50;;
3901;SDS011;1966;49.908;9.156;2023-05-24T04:48:37;11.83;;;4.80;;
3901;SDS011;1966;49.908;9.156;2023-05-24T04:53:38;20.97;;;5.17;;
3901;SDS011;1966;49.908;9.156;2023-05-24T04:58:37;12.17;;;3.93;;
3901;SDS011;1966;49.908;9.156;2023-05-24T05:03:36;11.00;;;4.60;;
3901;SDS011;1966;49.908;9.156;2023-05-24T05:08:35;11.67;;;3.90;;
3901;SDS011;1966;49.908;9.156;2023-05-24T05:13:36;9.97;;;4.17;;
3901;SDS011;1966;49.908;9.156;2023-05-24T05:18:35;16.37;;;3.70;;
3901;SDS011;1966;49.908;9.156;2023-05-24T05:23:35;17.93;;;4.27;;
3901;SDS011;1966;49.908;9.156;2023-05-24T05:28:37;14.57;;;3.87;;
3901;SDS011;1966;49.908;9.156;2023-05-24T05:33:37;8.70;;;3.70;;
3901;SDS011;1966;49.908;9.156;2023-05-24T05:38:36;11.70;;;4.37;;
3901;SDS011;1966;49.908;9.156;2023-05-24T05:43:35;10.50;;;3.50;;
3901;SDS011;1966;49.908;9.156;2023-05-24T05:48:36;10.33;;;3.67;;
3901;SDS011;1966;49.908;9.156;2023-05-24T05:53:35;6.23;;;3.10;;
3901;SDS011;1966;49.908;9.156;2023-05-24T05:58:35;9.87;;;4.50;;
3901;SDS011;1966;49.908;9.156;2023-05-24T06:03:37;12.43;;;4.20;;
3901;SDS011;1966;49.908;9.156;2023-05-24T06:08:36;8.60;;;4.13;;
3901;SDS011;1966;49.908;9.156;2023-05-24T06:13:37;11.20;;;3.77;;
3901;SDS011;1966;49.908;9.156;2023-05-24T06:18:38;11.00;;;3.80;;
3901;SDS011;1966;49.908;9.156;2023-05-24T06:23:37;17.60;;;4.40;;
3901;SDS011;1966;49.908;9.156;2023-05-24T06:28:37;7.07;;;3.40;;
3901;SDS011;1966;49.908;9.156;2023-05-24T06:33:37;7.93;;;3.30;;
3901;SDS011;1966;49.908;9.156;2023-05-24T06:38:37;9.40;;;3.40;;
3901;SDS011;1966;49.908;9.156;2023-05-24T06:43:36;8.53;;;3.20;;
3901;SDS011;1966;49.908;9.156;2023-05-24T06:48:35;5.87;;;3.50;;
3901;SDS011;1966;49.908;9.156;2023-05-24T06:53:36;10.83;;;3.80;;
3901;SDS011;1966;49.908;9.156;2023-05-24T06:58:35;8.33;;;2.80;;
3901;SDS011;1966;49.908;9.156;2023-05-24T07:03:34;10.47;;;4.00;;
3901;SDS011;1966;49.908;9.156;2023-05-24T07:08:34;9.70;;;3.43;;
3901;SDS011;1966;49.908;9.156;2023-05-24T07:13:34;7.23;;;3.40;;
3901;SDS011;1966;49.908;9.156;2023-05-24T07:18:34;11.03;;;3.77;;
3901;SDS011;1966;49.908;9.156;2023-05-24T07:23:33;10.80;;;3.63;;
3901;SDS011;1966;49.908;9.156;2023-05-24T07:28:35;7.47;;;2.90;;
3901;SDS011;1966;49.908;9.156;2023-05-24T07:33:37;8.73;;;3.00;;
3901;SDS011;1966;49.908;9.156;2023-05-24T07:38:36;10.40;;;3.47;;
3901;SDS011;1966;49.908;9.156;2023-05-24T07:43:37;9.00;;;3.27;;
3901;SDS011;1966;49.908;9.156;2023-05-24T07:48:36;11.33;;;3.40;;
3901;SDS011;1966;49.908;9.156;2023-05-24T07:53:35;11.40;;;4.23;;
3901;SDS011;1966;49.908;9.156;2023-05-24T07:58:36;7.43;;;3.00;;
3901;SDS011;1966;49.908;9.156;2023-05-24T08:03:37;6.93;;;3.13;;
3901;SDS011;1966;49.908;9.156;2023-05-24T08:08:37;11.63;;;3.23;;
3901;SDS011;1966;49.908;9.156;2023-05-24T08:13:37;6.80;;;3.17;;
3901;SDS011;1966;49.908;9.156;2023-05-24T08:18:37;8.00;;;3.33;;
3901;SDS011;1966;49.908;9.156;2023-05-24T08:23:36;8.30;;;3.63;;
3901;SDS011;1966;49.908;9.156;2023-05-24T08:28:35;16.43;;;4.10;;
3901;SDS011;1966;49.908;9.156;2023-05-24T08:33:36;19.27;;;4.30;;
3901;SDS011;1966;49.908;9.156;2023-05-24T08:38:35;10.40;;;4.30;;
3901;SDS011;1966;49.908;9.156;2023-05-24T08:43:34;12.07;;;4.60;;
3901;SDS011;1966;49.908;9.156;2023-05-24T08:48:35;10.03;;;3.80;;
3901;SDS011;1966;49.908;9.156;2023-05-24T08:53:40;9.23;;;3.80;;
3901;SDS011;1966;49.908;9.156;2023-05-24T08:58:45;14.47;;;4.33;;
3901;SDS011;1966;49.908;9.156;2023-05-24T09:03:46;13.63;;;4.30;;
3901;SDS011;1966;49.908;9.156;2023-05-24T09:08:46;14.90;;;5.33;;
3901;SDS011;1966;49.908;9.156;2023-05-24T09:13:49;8.80;;;4.20;;
3901;SDS011;1966;49.908;9.156;2023-05-24T09:18:50;8.43;;;3.63;;
3901;SDS011;1966;49.908;9.156;2023-05-24T09:23:50;9.40;;;3.87;;
3901;SDS011;1966;49.908;9.156;2023-05-24T09:28:50;13.00;;;4.17;;
3901;SDS011;1966;49.908;9.156;2023-05-24T09:33:54;8.70;;;4.30;;
3901;SDS011;1966;49.908;9.156;2023-05-24T09:39:01;9.07;;;4.47;;
3901;SDS011;1966;49.908;9.156;2023-05-24T09:44:04;9.23;;;3.93;;
3901;SDS011;1966;49.908;9.156;2023-05-24T09:49:04;9.43;;;4.00;;
3901;SDS011;1966;49.908;9.156;2023-05-24T09:54:05;13.20;;;3.60;;
3901;SDS011;1966;49.908;9.156;2023-05-24T09:59:05;10.77;;;4.13;;
3901;SDS011;1966;49.908;9.156;2023-05-24T10:04:07;10.63;;;4.23;;
3901;SDS011;1966;49.908;9.156;2023-05-24T10:09:06;14.67;;;5.07;;
3901;SDS011;1966;49.908;9.156;2023-05-24T10:14:08;14.37;;;4.30;;
3901;SDS011;1966;49.908;9.156;2023-05-24T10:19:09;11.30;;;4.07;;
3901;SDS011;1966;49.908;9.156;2023-05-24T10:24:08;11.70;;;4.07;;
3901;SDS011;1966;49.908;9.156;2023-05-24T10:29:10;13.07;;;3.70;;
3901;SDS011;1966;49.908;9.156;2023-05-24T10:34:15;12.03;;;4.40;;
3901;SDS011;1966;49.908;9.156;2023-05-24T10:39:14;10.47;;;3.93;;
3901;SDS011;1966;49.908;9.156;2023-05-24T10:44:16;9.50;;;4.00;;
3901;SDS011;1966;49.908;9.156;2023-05-24T10:49:17;13.00;;;4.50;;
3901;SDS011;1966;49.908;9.156;2023-05-24T10:54:17;9.13;;;4.30;;
3901;SDS011;1966;49.908;9.156;2023-05-24T10:59:23;16.30;;;4.23;;
3901;SDS011;1966;49.908;9.156;2023-05-24T11:04:29;14.43;;;3.97;;
3901;SDS011;1966;49.908;9.156;2023-05-24T11:09:28;15.63;;;4.90;;
3901;SDS011;1966;49.908;9.156;2023-05-24T11:14:29;9.00;;;4.40;;
3901;SDS011;1966;49.908;9.156;2023-05-24T11:19:31;10.67;;;4.53;;
3901;SDS011;1966;49.908;9.156;2023-05-24T11:24:31;10.50;;;4.43;;
3901;SDS011;1966;49.908;9.156;2023-05-24T11:29:30;9.70;;;4.37;;
3901;SDS011;1966;49.908;9.156;2023-05-24T11:34:32;7.53;;;4.37;;
3901;SDS011;1966;49.908;9.156;2023-05-24T11:39:32;9.07;;;4.67;;
3901;SDS011;1966;49.908;9.156;2023-05-24T11:44:32;7.17;;;3.67;;
3901;SDS011;1966;49.908;9.156;2023-05-24T11:49:33;9.87;;;4.17;;
3901;SDS011;1966;49.908;9.156;2023-05-24T11:54:32;11.40;;;4.30;;
3901;SDS011;1966;49.908;9.156;2023-05-24T11:59:34;6.97;;;3.60;;
3901;SDS011;1966;49.908;9.156;2023-05-24T12:04:36;6.80;;;3.77;;
3901;SDS011;1966;49.908;9.156;2023-05-24T12:09:36;9.07;;;3.70;;
3901;SDS011;1966;49.908;9.156;2023-05-24T12:14:36;11.23;;;4.60;;
3901;SDS011;1966;49.908;9.156;2023-05-24T12:19:37;17.23;;;4.27;;
3901;SDS011;1966;49.908;9.156;2023-05-24T12:24:36;11.67;;;5.30;;
3901;SDS011;1966;49.908;9.156;2023-05-24T12:29:36;8.67;;;4.00;;
3901;SDS011;1966;49.908;9.156;2023-05-24T12:34:38;7.53;;;3.77;;
3901;SDS011;1966;49.908;9.156;2023-05-24T12:39:38;6.13;;;3.30;;
3901;SDS011;1966;49.908;9.156;2023-05-24T12:44:39;8.40;;;3.53;;
3901;SDS011;1966;49.908;9.156;2023-05-24T12:49:40;8.03;;;3.50;;
3901;SDS011;1966;49.908;9.156;2023-05-24T12:54:40;8.03;;;3.73;;
3901;SDS011;1966;49.908;9.156;2023-05-24T12:59:39;7.93;;;3.80;;
3901;SDS011;1966;49.908;9.156;2023-05-24T13:04:40;7.07;;;3.90;;
3901;SDS011;1966;49.908;9.156;2023-05-24T13:09:39;6.60;;;3.90;;
3901;SDS011;1966;49.908;9.156;2023-05-24T13:14:38;11.57;;;4.10;;
3901;SDS011;1966;49.908;9.156;2023-05-24T13:19:37;6.73;;;3.57;;
3901;SDS011;1966;49.908;9.156;2023-05-24T13:24:38;6.67;;;3.43;;
3901;SDS011;1966;49.908;9.156;2023-05-24T13:29:37;6.57;;;3.80;;
3901;SDS011;1966;49.908;9.156;2023-05-24T13:34:37;7.00;;;3.90;;
3901;SDS011;1966;49.908;9.156;2023-05-24T13:39:36;11.00;;;4.63;;
3901;SDS011;1966;49.908;9.156;2023-05-24T13:44:37;11.73;;;4.20;;
3901;SDS011;1966;49.908;9.156;2023-05-24T13:49:36;9.90;;;4.00;;
3901;SDS011;1966;49.908;9.156;2023-05-24T13:54:36;10.90;;;4.40;;
3901;SDS011;1966;49.908;9.156;2023-05-24T13:59:35;6.70;;;3.93;;
3901;SDS011;1966;49.908;9.156;2023-05-24T14:04:35;10.80;;;4.53;;
3901;SDS011;1966;49.908;9.156;2023-05-24T14:09:35;14.77;;;4.70;;
3901;SDS011;1966;49.908;9.156;2023-05-24T14:14:34;8.17;;;3.93;;
3901;SDS011;1966;49.908;9.156;2023-05-24T14:19:33;10.17;;;4.00;;
3901;SDS011;1966;49.908;9.156;2023-05-24T14:24:34;9.80;;;4.10;;
3901;SDS011;1966;49.908;9.156;2023-05-24T14:29:33;9.90;;;4.20;;
3901;SDS011;1966;49.908;9.156;2023-05-24T14:34:32;9.73;;;3.70;;
3901;SDS011;1966;49.908;9.156;2023-05-24T14:39:31;8.57;;;4.30;;
3901;SDS011;1966;49.908;9.156;2023-05-24T14:44:32;9.50;;;3.83;;
3901;SDS011;1966;49.908;9.156;2023-05-24T14:49:31;7.63;;;3.70;;
3901;SDS011;1966;49.908;9.156;2023-05-24T14:54:30;11.57;;;4.73;;
3901;SDS011;1966;49.908;9.156;2023-05-24T14:59:30;7.63;;;3.60;;
3901;SDS011;1966;49.908;9.156;2023-05-24T15:04:30;12.57;;;4.43;;
3901;SDS011;1966;49.908;9.156;2023-05-24T15:09:29;7.40;;;3.97;;
3901;SDS011;1966;49.908;9.156;2023-05-24T15:14:29;10.77;;;4.67;;
3901;SDS011;1966;49.908;9.156;2023-05-24T15:19:28;8.33;;;3.87;;
3901;SDS011;1966;49.908;9.156;2023-05-24T15:24:29;9.47;;;3.57;;
3901;SDS011;1966;49.908;9.156;2023-05-24T15:29:28;5.83;;;3.60;;
3901;SDS011;1966;49.908;9.156;2023-05-24T15:34:27;11.30;;;4.60;;
3901;SDS011;1966;49.908;9.156;2023-05-24T15:39:26;10.00;;;3.83;;
3901;SDS011;1966;49.908;9.156;2023-05-24T15:44:27;7.67;;;3.87;;
3901;SDS011;1966;49.908;9.156;2023-05-24T15:49:26;7.17;;;3.57;;
3901;SDS011;1966;49.908;9.156;2023-05-24T15:54:26;12.20;;;4.73;;
3901;SDS011;1966;49.908;9.156;2023-05-24T15:59:26;9.30;;;4.03;;
3901;SDS011;1966;49.908;9.156;2023-05-24T16:04:25;4.73;;;3.43;;
3901;SDS011;1966;49.908;9.156;2023-05-24T16:09:25;7.67;;;4.20;;
3901;SDS011;1966;49.908;9.156;2023-05-24T16:14:24;7.83;;;3.90;;
3901;SDS011;1966;49.908;9.156;2023-05-24T16:19:25;6.80;;;4.50;;
3901;SDS011;1966;49.908;9.156;2023-05-24T16:24:24;7.70;;;4.07;;
3901;SDS011;1966;49.908;9.156;2023-05-24T16:29:23;10.70;;;4.20;;
3901;SDS011;1966;49.908;9.156;2023-05-24T16:34:24;9.23;;;3.70;;
3901;SDS011;1966;49.908;9.156;2023-05-24T16:39:24;11.70;;;4.00;;
3901;SDS011;1966;49.908;9.156;2023-05-24T16:44:24;8.93;;;4.10;;
3901;SDS011;1966;49.908;9.156;2023-05-24T16:49:24;7.90;;;3.70;;
3901;SDS011;1966;49.908;9.156;2023-05-24T16:54:23;6.97;;;3.87;;
3901;SDS011;1966;49.908;9.156;2023-05-24T16:59:22;11.83;;;5.00;;
3901;SDS011;1966;49.908;9.156;2023-05-24T17:04:22;9.20;;;4.60;;
3901;SDS011;1966;49.908;9.156;2023-05-24T17:09:22;8.93;;;3.90;;
3901;SDS011;1966;49.908;9.156;2023-05-24T17:14:21;7.47;;;3.67;;
3901;SDS011;1966;49.908;9.156;2023-05-24T17:19:21;7.13;;;3.90;;
3901;SDS011;1966;49.908;9.156;2023-05-24T17:24:23;7.33;;;4.47;;
3901;SDS011;1966;49.908;9.156;2023-05-24T17:29:24;6.73;;;3.57;;
3901;SDS011;1966;49.908;9.156;2023-05-24T17:34:24;6.93;;;4.23;;
3901;SDS011;1966;49.908;9.156;2023-05-24T17:39:25;10.97;;;4.00;;
3901;SDS011;1966;49.908;9.156;2023-05-24T17:44:24;10.70;;;4.53;;
3901;SDS011;1966;49.908;9.156;2023-05-24T17:49:23;7.83;;;3.53;;
3901;SDS011;1966;49.908;9.156;2023-05-24T17:54:24;13.57;;;4.30;;
3901;SDS011;1966;49.908;9.156;2023-05-24T17:59:23;7.17;;;3.77;;
3901;SDS011;1966;49.908;9.156;2023-05-24T18:04:23;6.63;;;3.93;;
3901;SDS011;1966;49.908;9.156;2023-05-24T18:09:22;8.87;;;4.00;;
3901;SDS011;1966;49.908;9.156;2023-05-24T18:14:23;8.10;;;4.60;;
3901;SDS011;1966;49.908;9.156;2023-05-24T18:19:22;7.40;;;3.60;;
3901;SDS011;1966;49.908;9.156;2023-05-24T18:24:23;6.53;;;3.90;;
3901;SDS011;1966;49.908;9.156;2023-05-24T18:29:23;7.50;;;4.07;;
3901;SDS011;1966;49.908;9.156;2023-05-24T18:34:23;7.60;;;4.30;;
3901;SDS011;1966;49.908;9.156;2023-05-24T18:39:22;6.40;;;4.37;;
3901;SDS011;1966;49.908;9.156;2023-05-24T18:44:21;8.70;;;3.73;;
3901;SDS011;1966;49.908;9.156;2023-05-24T18:49:22;8.60;;;3.90;;
3901;SDS011;1966;49.908;9.156;2023-05-24T18:54:21;7.13;;;3.57;;
3901;SDS011;1966;49.908;9.156;2023-05-24T18:59:20;6.67;;;4.30;;
3901;SDS011;1966;49.908;9.156;2023-05-24T19:04:27;5.47;;;3.90;;
3901;SDS011;1966;49.908;9.156;2023-05-24T19:09:26;7.80;;;4.63;;
3901;SDS011;1966;49.908;9.156;2023-05-24T19:14:25;9.23;;;4.73;;
3901;SDS011;1966;49.908;9.156;2023-05-24T19:19:26;8.00;;;4.20;;
3901;SDS011;1966;49.908;9.156;2023-05-24T19:24:25;5.40;;;3.90;;
3901;SDS011;1966;49.908;9.156;2023-05-24T19:29:24;11.80;;;5.30;;
3901;SDS011;1966;49.908;9.156;2023-05-24T19:34:24;11.97;;;5.93;;
3901;SDS011;1966;49.908;9.156;2023-05-24T19:39:26;14.97;;;6.83;;
3901;SDS011;1966;49.908;9.156;2023-05-24T19:44:26;13.03;;;6.10;;
3901;SDS011;1966;49.908;9.156;2023-05-24T19:49:26;11.17;;;4.80;;
3901;SDS011;1966;49.908;9.156;2023-05-24T19:54:27;7.73;;;4.40;;
3901;SDS011;1966;49.908;9.156;2023-05-24T19:59:26;8.83;;;4.33;;
3901;SDS011;1966;49.908;9.156;2023-05-24T20:04:25;8.67;;;5.90;;
3901;SDS011;1966;49.908;9.156;2023-05-24T20:09:25;13.20;;;4.80;;
3901;SDS011;1966;49.908;9.156;2023-05-24T20:14:25;9.30;;;5.57;;
3901;SDS011;1966;49.908;9.156;2023-05-24T20:19:25;11.80;;;6.43;;
3901;SDS011;1966;49.908;9.156;2023-05-24T20:24:24;15.60;;;7.10;;
3901;SDS011;1966;49.908;9.156;2023-05-24T20:29:23;11.30;;;6.07;;
3901;SDS011;1966;49.908;9.156;2023-05-24T20:34:24;11.17;;;5.90;;
3901;SDS011;1966;49.908;9.156;2023-05-24T20:39:23;9.67;;;5.67;;
3901;SDS011;1966;49.908;9.156;2023-05-24T20:44:22;10.57;;;4.77;;
3901;SDS011;1966;49.908;9.156;2023-05-24T20:49:21;9.60;;;4.40;;
3901;SDS011;1966;49.908;9.156;2023-05-24T20:54:22;8.43;;;4.80;;
3901;SDS011;1966;49.908;9.156;2023-05-24T20:59:21;14.23;;;5.00;;
3901;SDS011;1966;49.908;9.156;2023-05-24T21:04:20;7.10;;;4.70;;
3901;SDS011;1966;49.908;9.156;2023-05-24T21:09:20;6.47;;;4.50;;
3901;SDS011;1966;49.908;9.156;2023-05-24T21:14:20;8.93;;;5.10;;
3901;SDS011;1966;49.908;9.156;2023-05-24T21:19:19;8.33;;;4.70;;
3901;SDS011;1966;49.908;9.156;2023-05-24T21:24:19;7.97;;;5.20;;
3901;SDS011;1966;49.908;9.156;2023-05-24T21:29:18;8.37;;;4.70;;
3901;SDS011;1966;49.908;9.156;2023-05-24T21:34:19;8.10;;;4.73;;
3901;SDS011;1966;49.908;9.156;2023-05-24T21:39:18;11.27;;;4.93;;
3901;SDS011;1966;49.908;9.156;2023-05-24T21:44:17;5.87;;;4.40;;
3901;SDS011;1966;49.908;9.156;2023-05-24T21:49:16;6.43;;;4.00;;
3901;SDS011;1966;49.908;9.156;2023-05-24T21:54:17;7.40;;;4.37;;
3901;SDS011;1966;49.908;9.156;2023-05-24T21:59:16;10.00;;;4.73;;
3901;SDS011;1966;49.908;9.156;2023-05-24T22:04:16;10.77;;;4.40;;
3901;SDS011;1966;49.908;9.156;2023-05-24T22:09:16;6.93;;;4.60;;
3901;SDS011;1966;49.908;9.156;2023-05-24T22:14:16;7.50;;;5.00;;
3901;SDS011;1966;49.908;9.156;2023-05-24T22:19:15;7.40;;;4.33;;
3901;SDS011;1966;49.908;9.156;2023-05-24T22:24:14;5.70;;;3.80;;
3901;SDS011;1966;49.908;9.156;2023-05-24T22:29:15;7.60;;;4.63;;
3901;SDS011;1966;49.908;9.156;2023-05-24T22:34:14;8.60;;;5.00;;
3901;SDS011;1966;49.908;9.156;2023-05-24T22:39:23;6.50;;;4.40;;
3901;SDS011;1966;49.908;9.156;2023-05-24T22:44:23;9.00;;;4.87;;
3901;SDS011;1966;49.908;9.156;2023-05-24T22:49:23;18.13;;;5.40;;
3901;SDS011;1966;49.908;9.156;2023-05-24T22:54:26;8.60;;;4.30;;
3901;SDS011;1966;49.908;9.156;2023-05-24T22:59:26;12.80;;;4.97;;
3901;SDS011;1966;49.908;9.156;2023-05-24T23:04:26;10.97;;;4.70;;
3901;SDS011;1966;49.908;9.156;2023-05-24T23:09:25;10.77;;;5.20;;
3901;SDS011;1966;49.908;9.156;2023-05-24T23:14:32;7.80;;;5.30;;
3901;SDS011;1966;49.908;9.156;2023-05-24T23:19:35;7.53;;;4.50;;
3901;SDS011;1966;49.908;9.156;2023-05-24T23:24:39;11.37;;;5.83;;
3901;SDS011;1966;49.908;9.156;2023-05-24T23:29:40;6.73;;;4.57;;
3901;SDS011;1966;49.908;9.156;2023-05-24T23:34:40;7.90;;;4.80;;
3901;SDS011;1966;49.908;9.156;2023-05-24T23:39:39;9.00;;;5.13;;
3901;SDS011;1966;49.908;9.156;2023-05-24T23:44:38;8.93;;;4.97;;
3901;SDS011;1966;49.908;9.156;2023-05-24T23:49:39;8.37;;;5.23;;
3901;SDS011;1966;49.908;9.156;2023-05-24T23:54:38;8.83;;;5.30;;
3901;SDS011;1966;49.908;9.156;2023-05-24T23:59:37;11.67;;;5.60;;
